Time;durP1;ratioP1;P1;durP2;ratioP2;P2;SDS_P1;SDS_P2;PMS_P1;PMS_P2;Temp;Humidity;BMP_temperature;BMP_pressure;BME280_temperature;BME280_humidity;BME280_pressure;Samples;Min_cycle;Max_cycle;Signal;HPM_P1;HPM_P2
2021/01/29 00:02:13;;;;;;;0.55;0.30;;;;;;;;;;4959287;28;20050;-50
2021/01/29 00:04:40;;;;;;;1.17;0.30;;;;;;;;;;4991926;28;20034;-48
2021/01/29 00:07:07;;;;;;;1.13;0.50;;;;;;;;;;5002797;28;20018;-48
2021/01/29 00:09:33;;;;;;;4.47;0.80;;;;;;;;;;4994292;28;20047;-49
2021/01/29 00:11:59;;;;;;;3.38;0.50;;;;;;;;;;4991490;28;20121;-48
2021/01/29 00:14:25;;;;;;;1.95;0.40;;;;;;;;;;4993891;28;20117;-48
2021/01/29 00:16:51;;;;;;;2.00;0.52;;;;;;;;;;4991536;28;20027;-56
2021/01/29 00:19:17;;;;;;;1.00;0.50;;;;;;;;;;4990188;28;20022;-51
2021/01/29 00:21:43;;;;;;;1.10;0.32;;;;;;;;;;4990812;28;20030;-53
2021/01/29 00:24:09;;;;;;;0.47;0.40;;;;;;;;;;4989817;28;20029;-49
2021/01/29 00:26:36;;;;;;;0.88;0.35;;;;;;;;;;4991192;28;20361;-48
2021/01/29 00:29:02;;;;;;;1.42;0.50;;;;;;;;;;4989774;28;20019;-49
2021/01/29 00:31:28;;;;;;;4.97;0.60;;;;;;;;;;4991487;28;20179;-51
2021/01/29 00:33:54;;;;;;;1.13;0.40;;;;;;;;;;4986991;28;20539;-55
2021/01/29 00:36:20;;;;;;;1.13;0.47;;;;;;;;;;4991969;28;20494;-50
2021/01/29 00:38:46;;;;;;;0.40;0.32;;;;;;;;;;4989927;28;20018;-49
2021/01/29 00:41:12;;;;;;;1.00;0.60;;;;;;;;;;4991062;28;20034;-48
2021/01/29 00:43:39;;;;;;;1.35;0.40;;;;;;;;;;4991918;28;20057;-49
2021/01/29 00:46:05;;;;;;;0.73;0.40;;;;;;;;;;4990935;28;20084;-48
2021/01/29 00:48:31;;;;;;;0.73;0.47;;;;;;;;;;4991818;28;20034;-50
2021/01/29 00:50:57;;;;;;;1.60;0.30;;;;;;;;;;4994078;28;20378;-49
2021/01/29 00:53:26;;;;;;;1.60;0.43;;;;;;;;;;4994363;28;20095;-47
2021/01/29 00:55:52;;;;;;;2.08;0.50;;;;;;;;;;5010945;28;20030;-54
2021/01/29 00:58:18;;;;;;;2.83;0.22;;;;;;;;;;5010848;28;20036;-48
2021/01/29 01:00:44;;;;;;;1.50;0.45;;;;;;;;;;5002290;28;20031;-48
2021/01/29 01:03:10;;;;;;;0.60;0.40;;;;;;;;;;4990350;28;20483;-48
2021/01/29 01:05:38;;;;;;;1.52;0.40;;;;;;;;;;4991620;28;20019;-48
2021/01/29 01:08:04;;;;;;;1.73;0.40;;;;;;;;;;4988231;28;20022;-48
2021/01/29 01:10:30;;;;;;;1.02;0.57;;;;;;;;;;4997456;28;20044;-50
2021/01/29 01:12:56;;;;;;;1.88;0.75;;;;;;;;;;4995142;28;20118;-56
2021/01/29 01:15:24;;;;;;;1.05;0.30;;;;;;;;;;5009625;28;20101;-48
2021/01/29 01:17:51;;;;;;;0.90;0.40;;;;;;;;;;5010708;28;20057;-51
2021/01/29 01:20:18;;;;;;;0.65;0.40;;;;;;;;;;5009229;28;20030;-47
2021/01/29 01:22:45;;;;;;;0.77;0.32;;;;;;;;;;5010649;28;20053;-50
2021/01/29 01:25:11;;;;;;;1.30;0.50;;;;;;;;;;5009724;28;20085;-49
2021/01/29 01:27:37;;;;;;;0.55;0.43;;;;;;;;;;5010020;28;20018;-48
2021/01/29 01:30:05;;;;;;;0.93;0.30;;;;;;;;;;4990908;28;20054;-47
2021/01/29 01:32:31;;;;;;;0.88;0.30;;;;;;;;;;4990987;28;20060;-47
2021/01/29 01:34:57;;;;;;;1.40;0.40;;;;;;;;;;4994714;28;20097;-55
2021/01/29 01:37:23;;;;;;;0.85;0.40;;;;;;;;;;5010780;28;20034;-48
2021/01/29 01:39:49;;;;;;;2.33;0.55;;;;;;;;;;4974826;28;20030;-50
2021/01/29 01:42:15;;;;;;;2.75;0.40;;;;;;;;;;4990188;28;20027;-47
2021/01/29 01:44:42;;;;;;;0.57;0.30;;;;;;;;;;4992205;28;20042;-50
2021/01/29 01:47:25;;;;;;;0.47;0.32;;;;;;;;;;4990080;28;20050;-48
2021/01/29 01:49:53;;;;;;;0.65;0.30;;;;;;;;;;4990968;28;20041;-48
2021/01/29 01:52:23;;;;;;;0.50;0.30;;;;;;;;;;4990431;28;20053;-48
2021/01/29 01:54:52;;;;;;;1.00;0.40;;;;;;;;;;5003414;28;20030;-50
2021/01/29 01:57:20;;;;;;;0.43;0.35;;;;;;;;;;5009237;28;20030;-48
2021/01/29 01:59:51;;;;;;;1.05;0.75;;;;;;;;;;5010455;28;20022;-51
2021/01/29 02:02:20;;;;;;;0.85;0.55;;;;;;;;;;5009646;28;20046;-48
2021/01/29 02:04:46;;;;;;;0.77;0.40;;;;;;;;;;5009415;28;20461;-48
2021/01/29 02:07:37;;;;;;;0.98;0.50;;;;;;;;;;5009560;28;20032;-49
2021/01/29 02:10:04;;;;;;;0.57;0.25;;;;;;;;;;4989795;28;20030;-49
2021/01/29 02:12:30;;;;;;;1.58;0.30;;;;;;;;;;5040993;28;20022;-47
2021/01/29 02:14:57;;;;;;;0.20;0.20;;;;;;;;;;5009571;28;20394;-55
2021/01/29 02:17:42;;;;;;;1.13;0.47;;;;;;;;;;5009051;28;20053;-47
2021/01/29 02:20:20;;;;;;;0.30;0.30;;;;;;;;;;4989779;28;20049;-48
2021/01/29 02:22:46;;;;;;;0.50;0.40;;;;;;;;;;4990214;28;20088;-48
2021/01/29 02:25:27;;;;;;;0.68;0.32;;;;;;;;;;4989761;28;20451;-48
2021/01/29 02:27:57;;;;;;;1.30;0.30;;;;;;;;;;4998464;28;20087;-50
2021/01/29 02:30:32;;;;;;;0.63;0.30;;;;;;;;;;5009974;28;20079;-48
2021/01/29 02:33:31;;;;;;;1.70;0.60;;;;;;;;;;5002567;28;20062;-56
2021/01/29 02:35:57;;;;;;;1.17;0.40;;;;;;;;;;4991747;28;20082;-55
2021/01/29 02:38:23;;;;;;;0.90;0.50;;;;;;;;;;4999624;28;20022;-48
2021/01/29 02:41:01;;;;;;;0.88;0.43;;;;;;;;;;4990216;28;20518;-48
2021/01/29 02:43:39;;;;;;;1.27;0.68;;;;;;;;;;4989886;28;20136;-47
2021/01/29 02:46:14;;;;;;;0.77;0.30;;;;;;;;;;5008568;28;20129;-49
2021/01/29 02:49:02;;;;;;;1.10;0.30;;;;;;;;;;5009461;28;20037;-48
2021/01/29 02:51:31;;;;;;;1.83;0.98;;;;;;;;;;5007949;28;20033;-48
2021/01/29 02:54:23;;;;;;;0.45;0.30;;;;;;;;;;4993961;28;20379;-56
2021/01/29 02:56:52;;;;;;;0.63;0.30;;;;;;;;;;4986545;28;20041;-48
2021/01/29 02:59:26;;;;;;;0.57;0.30;;;;;;;;;;5008196;28;20133;-49
2021/01/29 03:01:58;;;;;;;0.40;0.20;;;;;;;;;;5006682;28;20034;-50
2021/01/29 03:04:30;;;;;;;1.65;0.40;;;;;;;;;;4992652;28;20018;-50
2021/01/29 03:07:09;;;;;;;0.57;0.40;;;;;;;;;;4987142;28;20029;-55
2021/01/29 03:09:40;;;;;;;1.05;0.40;;;;;;;;;;4989307;28;20027;-49
2021/01/29 03:12:06;;;;;;;1.05;0.40;;;;;;;;;;4971489;28;20724;-51
2021/01/29 03:14:45;;;;;;;0.73;0.35;;;;;;;;;;4989644;28;20759;-47
2021/01/29 03:17:13;;;;;;;0.55;0.40;;;;;;;;;;4989221;28;20153;-52
2021/01/29 03:20:00;;;;;;;0.98;0.40;;;;;;;;;;4989724;28;20025;-51
2021/01/29 03:22:29;;;;;;;0.35;0.35;;;;;;;;;;5000988;28;20034;-48
2021/01/29 03:24:57;;;;;;;0.30;0.30;;;;;;;;;;4989239;28;20145;-48
2021/01/29 03:27:23;;;;;;;0.60;0.30;;;;;;;;;;4971652;28;20035;-48
2021/01/29 03:29:52;;;;;;;0.95;0.65;;;;;;;;;;4989515;28;20033;-48
2021/01/29 03:32:19;;;;;;;0.98;0.40;;;;;;;;;;4988031;28;20088;-47
2021/01/29 03:34:51;;;;;;;2.40;0.50;;;;;;;;;;4987077;28;20026;-48
2021/01/29 03:37:46;;;;;;;0.40;0.30;;;;;;;;;;4986421;28;20042;-48
2021/01/29 03:40:12;;;;;;;0.65;0.30;;;;;;;;;;4993373;28;20094;-50
2021/01/29 03:42:47;;;;;;;0.77;0.30;;;;;;;;;;4990267;28;20031;-48
2021/01/29 03:45:19;;;;;;;0.30;0.30;;;;;;;;;;4988263;28;20035;-53
2021/01/29 03:47:45;;;;;;;;;;;;;;;;;;4989516;28;20022;-49
2021/01/29 03:50:11;;;;;;;0.40;0.30;;;;;;;;;;4992583;28;19917;-52
2021/01/29 03:52:48;;;;;;;0.40;0.20;;;;;;;;;;5008485;28;20026;-49
2021/01/29 03:55:22;;;;;;;0.70;0.40;;;;;;;;;;4999196;28;20030;-54
2021/01/29 03:58:02;;;;;;;0.90;0.30;;;;;;;;;;4971903;28;20407;-49
2021/01/29 04:00:38;;;;;;;1.17;0.57;;;;;;;;;;4989914;28;20035;-47
2021/01/29 04:03:43;;;;;;;1.65;0.40;;;;;;;;;;4987506;28;20073;-47
2021/01/29 04:06:12;;;;;;;0.43;0.28;;;;;;;;;;4988488;28;20479;-49
2021/01/29 04:08:42;;;;;;;0.60;0.30;;;;;;;;;;4989199;28;20062;-51
2021/01/29 04:11:09;;;;;;;0.50;0.30;;;;;;;;;;4987969;28;20054;-47
2021/01/29 04:13:41;;;;;;;2.17;0.40;;;;;;;;;;4988868;28;20146;-51
2021/01/29 04:16:08;;;;;;;0.80;0.40;;;;;;;;;;4987872;28;20034;-49
2021/01/29 04:18:37;;;;;;;1.10;0.63;;;;;;;;;;4989469;28;20124;-50
2021/01/29 04:21:06;;;;;;;1.30;0.30;;;;;;;;;;4997923;28;20483;-50
2021/01/29 04:23:34;;;;;;;0.40;0.32;;;;;;;;;;5008451;28;20034;-48
2021/01/29 04:26:13;;;;;;;0.20;0.20;;;;;;;;;;5007701;28;20101;-54
2021/01/29 04:28:42;;;;;;;0.20;0.20;;;;;;;;;;5006376;28;20026;-47
2021/01/29 04:31:10;;;;;;;0.30;0.30;;;;;;;;;;5007725;28;20176;-47
2021/01/29 04:33:45;;;;;;;1.45;0.60;;;;;;;;;;5008404;28;20030;-50
2021/01/29 04:36:14;;;;;;;0.60;0.30;;;;;;;;;;5007277;28;20105;-48
2021/01/29 04:38:48;;;;;;;0.47;0.22;;;;;;;;;;4995571;28;20045;-48
2021/01/29 04:41:28;;;;;;;0.32;0.28;;;;;;;;;;4990929;28;20030;-47
2021/01/29 04:44:12;;;;;;;0.57;0.38;;;;;;;;;;4991718;28;20034;-47
2021/01/29 04:46:58;;;;;;;0.90;0.25;;;;;;;;;;4993202;28;20031;-49
2021/01/29 04:49:28;;;;;;;0.40;0.30;;;;;;;;;;4991823;28;20034;-51
2021/01/29 04:52:24;;;;;;;0.88;0.40;;;;;;;;;;4991787;28;20152;-48
2021/01/29 04:55:22;;;;;;;0.93;0.45;;;;;;;;;;4992258;28;20042;-47
2021/01/29 04:58:03;;;;;;;0.55;0.38;;;;;;;;;;4982861;28;20047;-49
2021/01/29 05:00:47;;;;;;;1.05;0.40;;;;;;;;;;4954727;28;20034;-50
2021/01/29 05:03:19;;;;;;;0.52;0.30;;;;;;;;;;4971238;28;20116;-47
2021/01/29 05:05:46;;;;;;;0.45;0.30;;;;;;;;;;4976531;28;20030;-47
2021/01/29 05:08:21;;;;;;;1.30;0.22;;;;;;;;;;4973795;28;20023;-47
2021/01/29 05:10:50;;;;;;;0.30;0.30;;;;;;;;;;4974219;28;20041;-47
2021/01/29 05:13:19;;;;;;;0.40;0.40;;;;;;;;;;5002913;28;20038;-50
2021/01/29 05:16:04;;;;;;;0.40;0.30;;;;;;;;;;5010846;28;20030;-47
2021/01/29 05:18:48;;;;;;;0.40;0.30;;;;;;;;;;5011231;28;20117;-47
2021/01/29 05:21:27;;;;;;;0.90;0.30;;;;;;;;;;5008332;28;20037;-47
2021/01/29 05:24:12;;;;;;;0.60;0.20;;;;;;;;;;5010923;28;20475;-48
2021/01/29 05:26:56;;;;;;;1.35;0.30;;;;;;;;;;5011027;28;20029;-48
2021/01/29 05:29:40;;;;;;;0.95;0.30;;;;;;;;;;5010170;28;20041;-47
2021/01/29 05:32:18;;;;;;;0.50;0.30;;;;;;;;;;4994343;28;20050;-47
2021/01/29 05:34:59;;;;;;;0.38;0.30;;;;;;;;;;4991686;28;20050;-47
2021/01/29 05:37:44;;;;;;;0.28;0.25;;;;;;;;;;4991881;28;20026;-49
2021/01/29 05:40:29;;;;;;;0.70;0.30;;;;;;;;;;5004540;28;20079;-49
2021/01/29 05:43:13;;;;;;;0.60;0.30;;;;;;;;;;4990954;28;20494;-49
2021/01/29 05:45:51;;;;;;;0.73;0.40;;;;;;;;;;4992456;28;20032;-46
2021/01/29 05:48:36;;;;;;;0.20;0.20;;;;;;;;;;5009505;28;20030;-46
2021/01/29 05:51:25;;;;;;;0.45;0.22;;;;;;;;;;5009672;28;20440;-62
2021/01/29 05:53:51;;;;;;;0.45;0.35;;;;;;;;;;5012445;28;20050;-60
2021/01/29 05:56:22;;;;;;;0.50;0.30;;;;;;;;;;5003032;28;20029;-49
2021/01/29 05:59:00;;;;;;;0.75;0.40;;;;;;;;;;4973963;28;20022;-47
2021/01/29 06:01:41;;;;;;;0.90;0.30;;;;;;;;;;4990603;28;20069;-47
2021/01/29 06:04:07;;;;;;;1.83;0.35;;;;;;;;;;4989522;28;20509;-49
2021/01/29 06:06:36;;;;;;;0.57;0.30;;;;;;;;;;4991077;28;20034;-47
2021/01/29 06:09:17;;;;;;;1.48;0.30;;;;;;;;;;4990064;28;20025;-55
2021/01/29 06:12:02;;;;;;;0.20;0.20;;;;;;;;;;4990620;28;20364;-47
2021/01/29 06:14:46;;;;;;;1.27;0.35;;;;;;;;;;5002776;28;20595;-46
2021/01/29 06:17:12;;;;;;;0.20;0.20;;;;;;;;;;5005147;28;20031;-47
2021/01/29 06:20:09;;;;;;;0.20;0.20;;;;;;;;;;4989264;28;20023;-48
2021/01/29 06:22:45;;;;;;;1.42;0.32;;;;;;;;;;4991949;28;20030;-49
2021/01/29 06:25:26;;;;;;;0.20;0.20;;;;;;;;;;4984786;28;20079;-48
2021/01/29 06:28:03;;;;;;;0.88;0.20;;;;;;;;;;4988520;28;20038;-48
2021/01/29 06:30:38;;;;;;;0.32;0.28;;;;;;;;;;4988910;28;20038;-48
2021/01/29 06:33:11;;;;;;;0.40;0.30;;;;;;;;;;4986914;28;20050;-54
2021/01/29 06:35:40;;;;;;;0.25;0.25;;;;;;;;;;4987043;28;20079;-50
2021/01/29 06:38:25;;;;;;;0.98;0.30;;;;;;;;;;4988003;28;20018;-52
2021/01/29 06:40:51;;;;;;;1.40;0.20;;;;;;;;;;4988832;28;20513;-50
2021/01/29 06:43:35;;;;;;;1.42;0.32;;;;;;;;;;4988125;28;20043;-49
2021/01/29 06:46:17;;;;;;;0.28;0.20;;;;;;;;;;4986980;28;20022;-55
2021/01/29 06:49:01;;;;;;;0.30;0.20;;;;;;;;;;4987569;28;20079;-47
2021/01/29 06:51:30;;;;;;;0.20;0.20;;;;;;;;;;4987626;28;20041;-49
2021/01/29 06:54:22;;;;;;;0.20;0.20;;;;;;;;;;4986576;28;20092;-53
2021/01/29 06:56:48;;;;;;;;;;;;;;;;;;4959178;28;20051;-52
2021/01/29 06:59:23;;;;;;;2.63;0.22;;;;;;;;;;4988142;28;19912;-52
2021/01/29 07:01:58;;;;;;;1.27;0.20;;;;;;;;;;4987803;28;20033;-53
2021/01/29 07:04:43;;;;;;;1.45;0.20;;;;;;;;;;4987562;28;20027;-50
2021/01/29 07:07:12;;;;;;;0.90;0.40;;;;;;;;;;4987135;28;20060;-54
2021/01/29 07:09:38;;;;;;;2.13;0.40;;;;;;;;;;4988471;28;20076;-50
2021/01/29 07:12:27;;;;;;;1.27;0.20;;;;;;;;;;4988882;28;20022;-50
2021/01/29 07:15:01;;;;;;;2.28;0.30;;;;;;;;;;4971347;28;20033;-50
2021/01/29 07:17:44;;;;;;;0.45;0.32;;;;;;;;;;4989116;28;20061;-52
2021/01/29 07:20:27;;;;;;;0.17;0.13;;;;;;;;;;4986915;28;20023;-48
2021/01/29 07:23:02;;;;;;;1.42;0.30;;;;;;;;;;4988514;28;20364;-48
2021/01/29 07:25:46;;;;;;;0.40;0.30;;;;;;;;;;4988214;28;20101;-47
2021/01/29 07:28:31;;;;;;;0.40;0.22;;;;;;;;;;4988270;28;20064;-50
2021/01/29 07:31:10;;;;;;;1.48;0.20;;;;;;;;;;4985914;28;20030;-58
2021/01/29 07:33:36;;;;;;;1.48;0.20;;;;;;;;;;4985916;28;20042;-54
2021/01/29 07:36:21;;;;;;;1.48;0.20;;;;;;;;;;4990650;28;20418;-56
2021/01/29 07:38:47;;;;;;;1.05;0.28;;;;;;;;;;4984938;28;20049;-48
2021/01/29 07:41:19;;;;;;;0.60;0.30;;;;;;;;;;4987129;28;20026;-49
2021/01/29 07:43:48;;;;;;;0.90;0.30;;;;;;;;;;4986123;28;20105;-51
2021/01/29 07:46:40;;;;;;;0.40;0.20;;;;;;;;;;4987518;28;20029;-48
2021/01/29 07:49:09;;;;;;;1.20;0.90;;;;;;;;;;4957122;28;20648;-50
2021/01/29 07:51:38;;;;;;;0.40;0.30;;;;;;;;;;4968411;28;20019;-51
2021/01/29 07:54:23;;;;;;;0.20;0.20;;;;;;;;;;4987218;28;20039;-53
2021/01/29 07:56:53;;;;;;;1.70;0.30;;;;;;;;;;4987394;28;20031;-48
2021/01/29 07:59:19;;;;;;;0.32;0.20;;;;;;;;;;4986984;28;20105;-52
2021/01/29 08:02:04;;;;;;;1.05;0.22;;;;;;;;;;4988030;28;20084;-47
2021/01/29 08:04:42;;;;;;;0.93;0.43;;;;;;;;;;4987488;28;20049;-50
2021/01/29 08:07:17;;;;;;;0.77;0.30;;;;;;;;;;4986996;28;20079;-53
2021/01/29 08:09:45;;;;;;;0.52;0.32;;;;;;;;;;4987633;28;20022;-51
2021/01/29 08:12:16;;;;;;;0.20;0.20;;;;;;;;;;4989704;28;20498;-49
2021/01/29 08:15:00;;;;;;;1.08;0.25;;;;;;;;;;4993562;28;20026;-49
2021/01/29 08:17:35;;;;;;;0.20;0.20;;;;;;;;;;4991985;28;20035;-48
2021/01/29 08:20:20;;;;;;;1.38;0.20;;;;;;;;;;4991883;28;20050;-56
2021/01/29 08:22:58;;;;;;;0.45;0.20;;;;;;;;;;4994254;28;20031;-49
2021/01/29 08:25:43;;;;;;;2.05;0.60;;;;;;;;;;5010864;28;20633;-50
2021/01/29 08:28:27;;;;;;;0.30;0.30;;;;;;;;;;5011305;28;20030;-53
2021/01/29 08:31:02;;;;;;;0.52;0.20;;;;;;;;;;5011557;28;20034;-47
2021/01/29 08:33:28;;;;;;;1.55;1.08;;;;;;;;;;5009327;28;20041;-48
2021/01/29 08:35:54;;;;;;;0.30;0.20;;;;;;;;;;5011296;28;20018;-58
2021/01/29 08:38:34;;;;;;;1.23;0.30;;;;;;;;;;5004292;28;20018;-49
2021/01/29 08:41:07;;;;;;;0.50;0.30;;;;;;;;;;4992104;28;20049;-47
2021/01/29 08:43:35;;;;;;;2.85;0.30;;;;;;;;;;4993730;28;20398;-47
2021/01/29 08:46:14;;;;;;;0.20;0.20;;;;;;;;;;4990624;28;20088;-58
2021/01/29 08:48:49;;;;;;;1.95;0.30;;;;;;;;;;4990295;28;20418;-50
2021/01/29 08:51:15;;;;;;;1.55;0.30;;;;;;;;;;4987868;28;20378;-52
2021/01/29 08:53:52;;;;;;;1.00;0.38;;;;;;;;;;4990277;28;20034;-51
2021/01/29 08:56:37;;;;;;;0.80;0.50;;;;;;;;;;4988450;28;20033;-48
2021/01/29 08:59:11;;;;;;;0.40;0.30;;;;;;;;;;4989983;28;20030;-56
2021/01/29 09:01:40;;;;;;;2.10;0.40;;;;;;;;;;4989421;28;20387;-53
2021/01/29 09:04:21;;;;;;;2.63;0.20;;;;;;;;;;4990030;28;20070;-50
2021/01/29 09:06:48;;;;;;;0.55;0.30;;;;;;;;;;4990382;28;20041;-47
2021/01/29 09:09:18;;;;;;;6.95;0.40;;;;;;;;;;4985895;28;20045;-50
2021/01/29 09:11:51;;;;;;;1.17;0.60;;;;;;;;;;4990013;28;20030;-50
2021/01/29 09:14:23;;;;;;;0.93;0.25;;;;;;;;;;4987473;28;20040;-47
2021/01/29 09:16:51;;;;;;;0.73;0.35;;;;;;;;;;4990233;28;20030;-53
2021/01/29 09:19:18;;;;;;;0.55;0.20;;;;;;;;;;4989757;28;20018;-49
2021/01/29 09:22:03;;;;;;;0.93;0.28;;;;;;;;;;4990178;28;20065;-48
2021/01/29 09:24:47;;;;;;;0.28;0.20;;;;;;;;;;4991288;28;20108;-52
2021/01/29 09:27:20;;;;;;;0.30;0.30;;;;;;;;;;4986978;28;20132;-48
2021/01/29 09:29:51;;;;;;;0.80;0.40;;;;;;;;;;4990038;28;20018;-48
2021/01/29 09:32:21;;;;;;;1.05;0.30;;;;;;;;;;4991477;28;20530;-50
2021/01/29 09:34:49;;;;;;;0.95;0.38;;;;;;;;;;4990053;28;20051;-52
2021/01/29 09:37:18;;;;;;;0.60;0.40;;;;;;;;;;4989405;28;20029;-51
2021/01/29 09:39:46;;;;;;;2.40;0.32;;;;;;;;;;4989467;28;20026;-47
2021/01/29 09:42:14;;;;;;;1.25;0.60;;;;;;;;;;4987540;28;20026;-50
2021/01/29 09:45:10;;;;;;;2.67;0.30;;;;;;;;;;4989950;28;20079;-49
2021/01/29 09:47:39;;;;;;;1.58;0.40;;;;;;;;;;4992903;28;20072;-50
2021/01/29 09:50:10;;;;;;;0.77;0.32;;;;;;;;;;4989404;28;20036;-57
2021/01/29 09:52:55;;;;;;;1.65;0.40;;;;;;;;;;4987881;28;20146;-49
2021/01/29 09:55:26;;;;;;;2.75;0.40;;;;;;;;;;4987676;28;20073;-48
2021/01/29 09:58:11;;;;;;;0.70;0.40;;;;;;;;;;4988220;28;20032;-50
2021/01/29 10:00:38;;;;;;;1.40;0.20;;;;;;;;;;4987439;28;20031;-50
2021/01/29 10:03:10;;;;;;;1.95;0.38;;;;;;;;;;4989141;28;20046;-55
2021/01/29 10:05:57;;;;;;;2.35;0.30;;;;;;;;;;4988027;28;20017;-51
2021/01/29 10:08:29;;;;;;;0.80;0.30;;;;;;;;;;4988773;28;20107;-48
2021/01/29 10:11:11;;;;;;;1.55;0.20;;;;;;;;;;4987393;28;20027;-49
2021/01/29 10:13:44;;;;;;;0.50;0.20;;;;;;;;;;4987482;28;20549;-48
2021/01/29 10:16:28;;;;;;;1.58;0.63;;;;;;;;;;4988705;28;20101;-48
2021/01/29 10:18:54;;;;;;;1.40;0.70;;;;;;;;;;4987421;28;20072;-49
2021/01/29 10:21:23;;;;;;;0.63;0.30;;;;;;;;;;4988440;28;20022;-55
2021/01/29 10:23:58;;;;;;;0.45;0.40;;;;;;;;;;4991021;28;20110;-53
2021/01/29 10:26:29;;;;;;;3.85;0.95;;;;;;;;;;4988793;28;20522;-49
2021/01/29 10:29:14;;;;;;;1.80;0.40;;;;;;;;;;4987346;28;20060;-46
2021/01/29 10:31:46;;;;;;;1.80;1.02;;;;;;;;;;4988172;28;20047;-49
2021/01/29 10:34:12;;;;;;;;;;;;;;;;;;4985840;28;20030;-47
2021/01/29 10:36:39;;;;;;;1.83;0.52;;;;;;;;;;4989219;28;19974;-50
2021/01/29 10:39:07;;;;;;;8.55;0.60;;;;;;;;;;4986911;28;20433;-56
2021/01/29 10:41:34;;;;;;;6.35;0.50;;;;;;;;;;4986712;28;20026;-54
2021/01/29 10:44:20;;;;;;;4.57;0.85;;;;;;;;;;4986918;28;20030;-60
2021/01/29 10:46:55;;;;;;;8.90;1.08;;;;;;;;;;4987734;28;20092;-58
2021/01/29 10:49:29;;;;;;;3.53;0.70;;;;;;;;;;4987932;28;20125;-58
2021/01/29 10:52:02;;;;;;;3.90;0.63;;;;;;;;;;4988622;28;20751;-58
2021/01/29 10:54:39;;;;;;;5.32;0.90;;;;;;;;;;4989700;28;20479;-55
2021/01/29 10:57:18;;;;;;;3.78;0.98;;;;;;;;;;4987791;28;20033;-60
2021/01/29 10:59:57;;;;;;;3.50;0.85;;;;;;;;;;4989947;28;20490;-60
2021/01/29 11:02:47;;;;;;;3.80;0.75;;;;;;;;;;4986794;28;20061;-59
2021/01/29 11:05:24;;;;;;;4.00;0.80;;;;;;;;;;4984461;28;20030;-61
2021/01/29 11:07:52;;;;;;;3.58;0.90;;;;;;;;;;4987719;28;20042;-60
2021/01/29 11:10:30;;;;;;;4.45;0.90;;;;;;;;;;4987357;28;20105;-60
2021/01/29 11:12:56;;;;;;;6.60;0.85;;;;;;;;;;4971943;28;20026;-60
2021/01/29 11:15:23;;;;;;;2.47;0.70;;;;;;;;;;4987281;28;20030;-60
2021/01/29 11:18:02;;;;;;;6.05;0.80;;;;;;;;;;4988005;28;20088;-61
2021/01/29 11:20:31;;;;;;;3.03;0.70;;;;;;;;;;4987942;28;20046;-61
2021/01/29 11:23:09;;;;;;;5.65;0.80;;;;;;;;;;4989962;28;20097;-62
2021/01/29 11:25:37;;;;;;;4.88;0.82;;;;;;;;;;4988489;28;20494;-61
2021/01/29 11:28:10;;;;;;;3.83;0.80;;;;;;;;;;4987786;28;20026;-67
2021/01/29 11:30:38;;;;;;;2.58;0.80;;;;;;;;;;4986424;28;20109;-62
2021/01/29 11:33:08;;;;;;;4.95;1.10;;;;;;;;;;4988128;28;20026;-63
2021/01/29 11:35:50;;;;;;;3.70;0.98;;;;;;;;;;4989201;28;20076;-59
2021/01/29 11:38:16;;;;;;;7.60;0.95;;;;;;;;;;4982171;28;20019;-55
2021/01/29 11:40:42;;;;;;;3.05;0.80;;;;;;;;;;4987958;28;20062;-58
2021/01/29 11:43:11;;;;;;;6.35;0.80;;;;;;;;;;4989322;28;20034;-58
2021/01/29 11:45:48;;;;;;;4.03;1.10;;;;;;;;;;4987972;28;20018;-60
2021/01/29 11:48:18;;;;;;;8.48;1.00;;;;;;;;;;4988199;28;20037;-62
2021/01/29 11:51:02;;;;;;;6.30;1.42;;;;;;;;;;4991844;28;20029;-61
2021/01/29 11:53:40;;;;;;;4.28;0.90;;;;;;;;;;4973413;28;20041;-61
2021/01/29 11:56:10;;;;;;;3.40;1.77;;;;;;;;;;4990636;28;20030;-57
2021/01/29 11:58:39;;;;;;;5.30;0.90;;;;;;;;;;4991210;28;20025;-56
2021/01/29 12:01:23;;;;;;;5.32;0.93;;;;;;;;;;4991053;28;20026;-60
2021/01/29 12:04:11;;;;;;;7.72;1.13;;;;;;;;;;4992407;28;20123;-59
2021/01/29 12:06:37;;;;;;;5.85;0.85;;;;;;;;;;4992491;28;20030;-51
2021/01/29 12:09:13;;;;;;;9.68;1.30;;;;;;;;;;4973278;28;20046;-60
2021/01/29 12:11:49;;;;;;;8.55;1.10;;;;;;;;;;4971333;28;20046;-59
2021/01/29 12:14:19;;;;;;;7.22;0.80;;;;;;;;;;4987929;28;20356;-56
2021/01/29 12:16:46;;;;;;;4.38;0.90;;;;;;;;;;4992293;28;20038;-60
2021/01/29 12:19:26;;;;;;;3.28;0.80;;;;;;;;;;5009643;28;20044;-61
2021/01/29 12:22:18;;;;;;;3.25;0.75;;;;;;;;;;5009405;28;20032;-61
2021/01/29 12:24:44;;;;;;;;;;;;;;;;;;5002325;28;20375;-61
2021/01/29 12:27:17;;;;;;;2.30;0.70;;;;;;;;;;5008706;28;19917;-61
2021/01/29 12:29:46;;;;;;;2.38;0.90;;;;;;;;;;5010026;28;20026;-60
2021/01/29 12:32:12;;;;;;;3.60;0.90;;;;;;;;;;5010386;28;20374;-61
2021/01/29 12:34:43;;;;;;;2.40;0.75;;;;;;;;;;5011846;28;20052;-60
2021/01/29 12:37:14;;;;;;;3.30;1.25;;;;;;;;;;4992819;28;20028;-57
2021/01/29 12:40:06;;;;;;;4.60;1.45;;;;;;;;;;4999924;28;20894;-55
2021/01/29 12:42:41;;;;;;;2.30;0.77;;;;;;;;;;4983579;28;20490;-55
2021/01/29 12:45:07;;;;;;;9.20;0.82;;;;;;;;;;4992094;28;20106;-62
2021/01/29 12:47:42;;;;;;;5.45;0.80;;;;;;;;;;4977516;28;20034;-54
2021/01/29 12:50:08;;;;;;;2.92;0.73;;;;;;;;;;4999318;28;20109;-61
2021/01/29 12:52:41;;;;;;;3.10;1.00;;;;;;;;;;5011140;28;20117;-51
2021/01/29 12:55:07;;;;;;;5.28;1.13;;;;;;;;;;5006518;28;20037;-61
2021/01/29 12:57:34;;;;;;;4.10;0.80;;;;;;;;;;4988803;28;20019;-54
2021/01/29 13:00:10;;;;;;;4.90;0.90;;;;;;;;;;4995201;28;20031;-54
2021/01/29 13:02:39;;;;;;;5.22;0.85;;;;;;;;;;4989536;28;20030;-56
2021/01/29 13:05:15;;;;;;;3.70;1.15;;;;;;;;;;4984545;28;20031;-63
2021/01/29 14:49:32;;;;;;;9.00;1.33;;;21.70;46.00;;;;;;5106010;27;804866;-57
2021/01/29 14:52:09;;;;;;;3.67;0.93;;;21.70;44.50;;;;;;5107931;28;20035;-47
2021/01/29 14:54:38;;;;;;;3.78;0.80;;;21.60;44.70;;;;;;5127842;28;20023;-50
2021/01/29 14:57:14;;;;;;;2.92;0.65;;;21.60;45.00;;;;;;5128503;27;20031;-48
2021/01/29 14:59:50;;;;;;;14.23;1.48;;;21.50;45.20;;;;;;5127705;27;20027;-50
2021/01/29 15:02:23;;;;;;;20.35;3.50;;;21.40;46.10;;;;;;5126952;27;20023;-48
2021/01/29 15:04:52;;;;;;;26.90;3.80;;;21.50;46.50;;;;;;5127776;27;20024;-50
2021/01/29 15:07:29;;;;;;;27.15;4.30;;;21.70;46.80;;;;;;5119753;28;20036;-49
2021/01/29 15:10:18;;;;;;;14.30;2.10;;;22.10;45.70;;;;;;5114442;28;20020;-52
2021/01/29 15:12:46;;;;;;;13.85;2.20;;;21.90;45.30;;;;;;5122211;28;20031;-52
2021/01/29 15:15:21;;;;;;;18.02;2.00;;;21.70;46.10;;;;;;5118643;28;20147;-49
2021/01/29 15:17:49;;;;;;;18.77;2.63;;;21.50;48.70;;;;;;5127622;27;20084;-50
2021/01/29 15:20:39;;;;;;;12.57;1.83;;;21.50;47.80;;;;;;5126550;27;20028;-53
2021/01/29 15:23:27;;;;;;;14.05;2.70;;;21.50;50.20;;;;;;5127043;27;20023;-48
2021/01/29 15:25:52;;;;;;;14.13;2.40;;;21.90;48.50;;;;;;5127689;27;20019;-48
2021/01/29 15:28:31;;;;;;;14.63;3.00;;;;;;;;;;5126000;28;20039;-46
2021/01/29 15:31:03;;;;;;;18.95;2.78;;;;;;;;;;5127739;28;20084;-50
2021/01/29 15:33:29;;;;;;;16.55;2.20;;;;;;;;;;5118414;28;20284;-46
2021/01/29 15:36:22;;;;;;;10.02;2.28;;;;;;;;;;5127134;28;20102;-53
2021/01/29 15:38:57;;;;;;;18.17;2.35;;;;;;;;;;5116292;28;20039;-56
2021/01/29 15:41:25;;;;;;;9.98;2.08;;;;;;;;;;5119136;27;20038;-63
2021/01/29 15:43:52;;;;;;;24.77;4.05;;;;;;;;;;5125778;28;20032;-63
2021/01/29 15:46:37;;;;;;;15.90;1.95;;;;;;;;;;5125600;28;20015;-65
2021/01/29 15:49:05;;;;;;;18.17;2.30;;;;;;;;;;5127030;28;20055;-64
2021/01/29 15:51:49;;;;;;;8.45;2.30;;;;;;;;;;5126438;28;20020;-64
2021/01/29 15:54:15;;;;;;;9.60;1.75;;;;;;;;;;5126088;27;20028;-63
2021/01/29 15:56:42;;;;;;;7.78;2.20;;;;;;;;;;5126820;28;20023;-64
2021/01/29 15:59:12;;;;;;;11.30;2.03;;;;;;;;;;5120887;27;20040;-63
2021/01/29 16:01:56;;;;;;;22.35;2.60;;;;;;;;;;5111880;28;20070;-61
2021/01/29 16:04:22;;;;;;;7.40;1.85;;;;;;;;;;5108516;28;20023;-63
2021/01/29 16:06:56;;;;;;;14.95;3.50;;;;;;;;;;5107300;28;20111;-62
2021/01/29 16:09:30;;;;;;;7.18;1.77;;;;;;;;;;5096687;28;20027;-61
2021/01/29 16:11:56;;;;;;;7.05;2.25;;;;;;;;;;5103208;28;20024;-62
2021/01/29 16:14:25;;;;;;;14.73;2.20;;;;;;;;;;5107358;28;20012;-62
2021/01/29 16:16:51;;;;;;;5.50;1.70;;;;;;;;;;5104438;28;20023;-61
2021/01/29 16:19:23;;;;;;;10.32;1.95;;;;;;;;;;5111004;28;20028;-62
2021/01/29 16:21:50;;;;;;;10.52;1.90;;;;;;;;;;5100544;28;20095;-63
2021/01/29 16:24:17;;;;;;;6.38;1.63;;;;;;;;;;5108367;28;20762;-62
2021/01/29 16:26:46;;;;;;;5.18;1.58;;;;;;;;;;5112177;28;20031;-65
2021/01/29 16:29:14;;;;;;;6.40;1.55;;;;;;;;;;5112007;28;20023;-64
2021/01/29 16:31:45;;;;;;;12.80;1.90;;;;;;;;;;5111998;28;20035;-64
2021/01/29 16:34:21;;;;;;;11.07;1.60;;;;;;;;;;5112382;28;20464;-63
2021/01/29 16:36:48;;;;;;;6.20;1.80;;;;;;;;;;5112279;28;20080;-66
2021/01/29 16:39:22;;;;;;;4.63;1.25;;;;;;;;;;5103441;28;20098;-63
2021/01/29 16:41:48;;;;;;;8.63;1.63;;;;;;;;;;5112112;28;20023;-66
2021/01/29 16:44:23;;;;;;;6.35;1.45;;;;;;;;;;5112047;28;20139;-63
2021/01/29 16:46:50;;;;;;;7.68;2.45;;;;;;;;;;5111761;28;20031;-66
2021/01/29 16:49:18;;;;;;;10.00;2.35;;;;;;;;;;5111627;28;20055;-66
2021/01/29 16:51:50;;;;;;;5.20;1.42;;;;;;;;;;5112590;28;20047;-65
2021/01/29 16:54:18;;;;;;;5.15;1.92;;;;;;;;;;5102979;28;20024;-63
2021/01/29 16:56:45;;;;;;;9.88;1.73;;;;;;;;;;5097706;28;20016;-64
2021/01/29 16:59:15;;;;;;;9.40;2.17;;;;;;;;;;5107668;28;20102;-62